createdAt,value
2022-07-29T00:01:58.078Z,15.55
2022-07-29T00:06:59.680Z,15.53
2022-07-29T00:12:02.489Z,15.48
2022-07-29T00:17:04.081Z,15.44
2022-07-29T00:22:05.627Z,15.35
2022-07-29T00:27:07.186Z,15.37
2022-07-29T00:32:08.687Z,15.34
2022-07-29T00:37:10.198Z,15.33
2022-07-29T00:42:11.814Z,15.30
2022-07-29T00:47:13.554Z,15.27
2022-07-29T00:52:17.031Z,15.23
2022-07-29T00:57:19.034Z,15.21
2022-07-29T01:02:20.704Z,15.14
2022-07-29T01:07:22.263Z,15.15
2022-07-29T01:12:26.501Z,15.14
2022-07-29T01:17:53.661Z,15.14
2022-07-29T01:23:04.584Z,15.13
2022-07-29T01:28:21.187Z,15.15
2022-07-29T01:33:46.404Z,15.09
2022-07-29T01:38:55.876Z,15.03
2022-07-29T01:44:02.412Z,15.07
2022-07-29T01:49:16.090Z,15.14
2022-07-29T01:54:50.548Z,15.07
2022-07-29T01:59:53.630Z,15.06
2022-07-29T02:04:56.929Z,15.10
2022-07-29T02:09:59.735Z,15.14
2022-07-29T02:15:03.978Z,15.15
2022-07-29T02:20:06.377Z,15.12
2022-07-29T02:25:14.182Z,14.98
2022-07-29T02:30:15.930Z,14.80
2022-07-29T02:35:18.308Z,14.77
2022-07-29T02:40:19.978Z,14.72
2022-07-29T02:45:22.359Z,14.67
2022-07-29T02:50:33.655Z,14.30
2022-07-29T02:55:43.401Z,14.30
2022-07-29T03:00:48.189Z,14.29
2022-07-29T03:05:49.773Z,13.92
2022-07-29T03:10:52.452Z,13.80
2022-07-29T03:15:54.924Z,13.76
2022-07-29T03:20:56.618Z,13.84
2022-07-29T03:25:58.361Z,13.74
2022-07-29T03:30:59.919Z,13.75
2022-07-29T03:36:03.375Z,13.66
2022-07-29T03:41:10.391Z,13.58
2022-07-29T03:46:14.753Z,13.39
2022-07-29T03:51:16.405Z,13.32
2022-07-29T03:56:21.919Z,13.28
2022-07-29T04:01:23.841Z,13.23
2022-07-29T04:06:26.703Z,13.11
2022-07-29T04:11:28.270Z,13.04
2022-07-29T04:16:29.933Z,13.02
2022-07-29T04:21:31.515Z,13.33
2022-07-29T04:26:33.381Z,13.00
2022-07-29T04:31:35.105Z,12.91
2022-07-29T04:36:36.826Z,13.04
2022-07-29T04:41:38.325Z,13.14
2022-07-29T04:46:40.128Z,13.04
2022-07-29T04:51:41.755Z,13.13
2022-07-29T04:56:43.394Z,13.22
2022-07-29T05:01:44.938Z,13.29
2022-07-29T05:06:46.496Z,13.22
2022-07-29T05:11:47.985Z,13.24
2022-07-29T05:16:52.143Z,13.26
2022-07-29T05:21:53.650Z,13.36
2022-07-29T05:26:55.304Z,13.46
2022-07-29T05:31:56.804Z,13.45
2022-07-29T05:36:58.598Z,13.42
2022-07-29T05:42:00.109Z,13.59
2022-07-29T05:47:01.596Z,13.64
2022-07-29T05:52:03.640Z,13.60
2022-07-29T05:57:06.175Z,13.78
2022-07-29T06:02:07.712Z,13.76
2022-07-29T06:07:09.690Z,13.95
2022-07-29T06:12:11.244Z,13.99
2022-07-29T06:17:12.798Z,14.13
2022-07-29T06:22:17.147Z,14.05
2022-07-29T06:27:18.655Z,14.19
2022-07-29T06:32:20.216Z,14.38
2022-07-29T06:37:24.529Z,14.43
2022-07-29T06:42:27.772Z,14.45
2022-07-29T06:47:29.363Z,14.67
2022-07-29T06:52:30.854Z,14.81
2022-07-29T06:57:33.198Z,15.03
2022-07-29T07:02:34.725Z,15.04
2022-07-29T07:07:36.327Z,15.25
2022-07-29T07:12:37.847Z,15.36
2022-07-29T07:17:39.346Z,15.50
2022-07-29T07:22:41.057Z,15.50
2022-07-29T07:27:43.409Z,15.58
2022-07-29T07:32:45.047Z,15.67
2022-07-29T07:37:46.928Z,16.05
2022-07-29T07:42:48.544Z,15.94
2022-07-29T07:47:50.600Z,16.08
2022-07-29T07:52:54.715Z,16.26
2022-07-29T07:57:56.570Z,16.35
2022-07-29T08:02:58.122Z,16.34
2022-07-29T08:07:59.705Z,16.76
2022-07-29T08:13:04.820Z,16.57
2022-07-29T08:18:08.653Z,16.71
2022-07-29T08:23:10.580Z,16.86
2022-07-29T08:28:12.180Z,17.28
2022-07-29T08:33:13.929Z,17.46
2022-07-29T08:38:15.471Z,17.46
2022-07-29T08:43:17.177Z,17.56
2022-07-29T08:48:21.785Z,17.99
2022-07-29T08:53:27.449Z,18.06
2022-07-29T08:58:32.690Z,18.48
2022-07-29T09:03:40.018Z,18.57
2022-07-29T09:08:42.518Z,18.82
2022-07-29T09:13:45.384Z,18.94
2022-07-29T09:18:47.918Z,18.90
2022-07-29T09:24:11.935Z,19.04
2022-07-29T09:29:16.196Z,19.16
2022-07-29T09:34:30.762Z,19.48
2022-07-29T09:39:38.983Z,19.64
2022-07-29T09:44:49.346Z,19.94
2022-07-29T09:49:59.289Z,20.01
2022-07-29T09:55:13.655Z,20.34
2022-07-29T10:00:22.753Z,20.88
2022-07-29T10:05:26.980Z,21.31
2022-07-29T10:10:40.913Z,21.70
2022-07-29T10:15:46.163Z,21.93
2022-07-29T10:20:49.351Z,22.19
2022-07-29T10:25:51.406Z,22.98
2022-07-29T10:30:59.999Z,22.90
2022-07-29T10:36:25.478Z,22.99
2022-07-29T10:41:47.688Z,23.35
2022-07-29T10:46:50.371Z,23.34
2022-07-29T10:52:11.535Z,23.77
2022-07-29T10:57:17.703Z,23.81
2022-07-29T11:02:41.929Z,24.12
2022-07-29T11:08:21.221Z,24.45
2022-07-29T11:13:51.511Z,24.89
2022-07-29T11:19:13.452Z,24.77
2022-07-29T11:24:29.098Z,24.19
2022-07-29T11:29:33.215Z,25.32
2022-07-29T11:34:42.444Z,25.30
2022-07-29T11:39:48.539Z,24.76
2022-07-29T11:45:04.337Z,25.89
2022-07-29T11:50:33.821Z,25.70
2022-07-29T11:55:50.852Z,25.94
2022-07-29T12:00:55.453Z,26.88
2022-07-29T12:05:57.699Z,25.82
2022-07-29T12:10:59.531Z,26.01
2022-07-29T12:16:02.319Z,26.37
2022-07-29T12:21:07.078Z,25.84
2022-07-29T12:26:10.937Z,26.16
2022-07-29T12:31:43.406Z,25.05
2022-07-29T12:36:45.265Z,26.22
2022-07-29T12:41:47.191Z,27.11
2022-07-29T12:47:03.081Z,27.04
2022-07-29T12:52:28.552Z,25.84
2022-07-29T12:57:30.681Z,26.04
2022-07-29T13:02:32.841Z,26.78
2022-07-29T13:07:55.778Z,26.92
2022-07-29T13:13:13.024Z,26.74
2022-07-29T13:18:37.217Z,27.11
2022-07-29T13:23:38.865Z,27.15
2022-07-29T13:28:44.145Z,26.72
2022-07-29T13:33:46.179Z,26.52
2022-07-29T13:38:47.772Z,26.68
2022-07-29T13:43:50.026Z,27.12
2022-07-29T13:48:51.797Z,26.92
2022-07-29T13:53:53.462Z,26.66
2022-07-29T13:58:55.174Z,27.06
2022-07-29T14:03:56.785Z,27.27
2022-07-29T14:08:58.381Z,26.68
2022-07-29T14:14:00.294Z,26.36
2022-07-29T14:19:04.779Z,26.11
2022-07-29T14:24:14.160Z,25.60
2022-07-29T14:29:21.200Z,25.57
2022-07-29T14:34:22.938Z,25.64
2022-07-29T14:39:24.505Z,25.42
2022-07-29T14:44:33.403Z,25.34
2022-07-29T14:49:35.900Z,25.41
2022-07-29T14:54:39.088Z,25.13
2022-07-29T14:59:41.836Z,24.79
2022-07-29T15:04:43.399Z,25.19
2022-07-29T15:09:49.294Z,25.05
2022-07-29T15:14:51.699Z,24.80
2022-07-29T15:19:53.473Z,25.32
2022-07-29T15:24:56.195Z,24.87
2022-07-29T15:29:58.215Z,25.26
2022-07-29T15:34:59.823Z,25.24
2022-07-29T15:40:01.711Z,25.71
2022-07-29T15:45:04.130Z,25.10
2022-07-29T15:50:09.462Z,25.20
2022-07-29T15:55:11.398Z,26.01
2022-07-29T16:00:13.807Z,25.77
2022-07-29T16:05:15.496Z,25.60
2022-07-29T16:10:17.018Z,25.74
2022-07-29T16:15:18.812Z,25.84
2022-07-29T16:20:21.012Z,26.04
2022-07-29T16:25:38.398Z,25.42
2022-07-29T16:30:45.352Z,25.42
2022-07-29T16:35:47.076Z,25.64
2022-07-29T16:40:48.916Z,25.46
2022-07-29T16:45:50.630Z,25.38
2022-07-29T16:50:52.429Z,25.78
2022-07-29T16:55:55.778Z,25.29
2022-07-29T17:00:57.461Z,25.47
2022-07-29T17:05:59.070Z,25.45
2022-07-29T17:11:00.601Z,25.40
2022-07-29T17:16:02.392Z,25.35
2022-07-29T17:21:04.176Z,25.71
2022-07-29T17:26:05.725Z,25.53
2022-07-29T17:31:07.614Z,25.44
2022-07-29T17:36:24.295Z,25.06
2022-07-29T17:41:26.187Z,25.70
2022-07-29T17:46:27.930Z,25.56
2022-07-29T17:51:30.724Z,25.42
2022-07-29T17:56:32.501Z,25.16
2022-07-29T18:01:34.733Z,25.77
2022-07-29T18:06:36.327Z,24.88
2022-07-29T18:11:37.970Z,24.72
2022-07-29T18:16:40.787Z,24.14
2022-07-29T18:21:51.224Z,24.50
2022-07-29T18:26:56.650Z,23.99
2022-07-29T18:32:01.608Z,23.62
2022-07-29T18:37:04.211Z,23.60
2022-07-29T18:42:05.940Z,23.14
2022-07-29T18:47:07.582Z,23.16
2022-07-29T18:52:12.912Z,22.68
2022-07-29T18:57:54.610Z,22.83
2022-07-29T19:02:38.181Z,22.58
2022-07-29T19:07:40.493Z,22.44
2022-07-29T19:12:42.490Z,22.29
2022-07-29T19:17:45.071Z,21.85
2022-07-29T19:22:46.660Z,21.61
2022-07-29T19:27:48.178Z,21.68
2022-07-29T19:32:49.794Z,21.35
2022-07-29T19:37:52.432Z,21.08
2022-07-29T19:42:54.976Z,20.59
2022-07-29T19:48:01.264Z,20.42
2022-07-29T19:53:03.542Z,20.08
2022-07-29T19:58:06.124Z,20.17
2022-07-29T20:03:09.933Z,19.94
2022-07-29T20:08:11.441Z,19.73
2022-07-29T20:13:13.118Z,19.57
2022-07-29T20:18:16.027Z,19.49
2022-07-29T20:23:19.358Z,19.27
2022-07-29T20:28:20.890Z,18.98
2022-07-29T20:33:22.580Z,18.83
2022-07-29T20:38:24.154Z,18.64
2022-07-29T20:43:27.201Z,18.66
2022-07-29T20:48:28.791Z,18.47
2022-07-29T20:53:31.424Z,18.28
2022-07-29T20:58:34.316Z,18.25
2022-07-29T21:03:36.062Z,18.29
2022-07-29T21:08:38.712Z,18.12
2022-07-29T21:13:40.686Z,18.09
2022-07-29T21:18:46.325Z,17.87
2022-07-29T21:23:48.019Z,17.63
2022-07-29T21:28:50.505Z,17.63
2022-07-29T21:33:55.053Z,17.49
2022-07-29T21:38:57.101Z,17.53
2022-07-29T21:43:59.553Z,17.32
2022-07-29T21:49:03.186Z,17.17
2022-07-29T21:54:06.473Z,17.14
2022-07-29T21:59:09.821Z,16.94
2022-07-29T22:04:14.469Z,16.88
2022-07-29T22:09:16.596Z,16.79
2022-07-29T22:14:19.837Z,16.81
2022-07-29T22:19:29.035Z,16.79
2022-07-29T22:24:32.080Z,16.77
2022-07-29T22:29:33.854Z,16.71
2022-07-29T22:34:37.870Z,16.61
2022-07-29T22:39:40.726Z,16.49
2022-07-29T22:44:42.644Z,16.45
2022-07-29T22:49:44.344Z,16.34
2022-07-29T22:54:47.047Z,16.27
2022-07-29T22:59:50.460Z,16.32
2022-07-29T23:04:52.021Z,16.21
2022-07-29T23:09:53.520Z,16.15
2022-07-29T23:14:55.121Z,16.05
2022-07-29T23:19:56.794Z,16.07
2022-07-29T23:24:58.724Z,16.07
2022-07-29T23:30:00.374Z,16.05
2022-07-29T23:35:01.942Z,16.03
2022-07-29T23:40:05.247Z,16.02
2022-07-29T23:45:07.386Z,15.98
2022-07-29T23:50:13.960Z,15.90
2022-07-29T23:55:37.845Z,15.90
